sensor_id;sensor_type;location;lat;lon;timestamp;pressure;altitude;pressure_sealevel;temperature;humidity
44697;BME280;57264;47.480;19.354;2023-08-30T00:00:48;97919.50;;;16.94;100.00
44697;BME280;57264;47.480;19.354;2023-08-30T00:03:13;97917.31;;;17.01;100.00
44697;BME280;57264;47.480;19.354;2023-08-30T00:05:39;97914.66;;;17.01;100.00
44697;BME280;57264;47.480;19.354;2023-08-30T00:08:05;97920.53;;;16.98;100.00
44697;BME280;57264;47.480;19.354;2023-08-30T00:10:30;97912.59;;;16.93;100.00
44697;BME280;57264;47.480;19.354;2023-08-30T00:12:56;97917.22;;;16.82;100.00
44697;BME280;57264;47.480;19.354;2023-08-30T00:15:21;97922.81;;;16.81;100.00
44697;BME280;57264;47.480;19.354;2023-08-30T00:17:46;97917.53;;;16.76;100.00
44697;BME280;57264;47.480;19.354;2023-08-30T00:20:12;97920.78;;;16.68;100.00
44697;BME280;57264;47.480;19.354;2023-08-30T00:22:37;97924.28;;;16.53;100.00
44697;BME280;57264;47.480;19.354;2023-08-30T00:25:02;97928.16;;;16.32;100.00
44697;BME280;57264;47.480;19.354;2023-08-30T00:27:28;97929.31;;;16.16;100.00
44697;BME280;57264;47.480;19.354;2023-08-30T00:29:53;97927.47;;;16.06;100.00
44697;BME280;57264;47.480;19.354;2023-08-30T00:32:19;97921.69;;;15.99;100.00
44697;BME280;57264;47.480;19.354;2023-08-30T00:34:44;97916.97;;;15.91;100.00
44697;BME280;57264;47.480;19.354;2023-08-30T00:37:09;97929.88;;;16.03;100.00
44697;BME280;57264;47.480;19.354;2023-08-30T00:39:38;97931.00;;;15.91;100.00
44697;BME280;57264;47.480;19.354;2023-08-30T00:42:04;97931.28;;;15.85;100.00
44697;BME280;57264;47.480;19.354;2023-08-30T00:44:31;97928.91;;;15.83;100.00
44697;BME280;57264;47.480;19.354;2023-08-30T00:46:57;97935.25;;;15.82;100.00
44697;BME280;57264;47.480;19.354;2023-08-30T00:49:23;97941.09;;;15.84;100.00
44697;BME280;57264;47.480;19.354;2023-08-30T00:51:48;97945.06;;;15.77;100.00
44697;BME280;57264;47.480;19.354;2023-08-30T00:54:14;97944.56;;;15.70;100.00
44697;BME280;57264;47.480;19.354;2023-08-30T00:56:41;97943.25;;;15.67;100.00
44697;BME280;57264;47.480;19.354;2023-08-30T00:59:07;97947.50;;;15.68;100.00
44697;BME280;57264;47.480;19.354;2023-08-30T01:04:19;97948.31;;;15.64;100.00
44697;BME280;57264;47.480;19.354;2023-08-30T01:06:44;97948.84;;;15.56;100.00
44697;BME280;57264;47.480;19.354;2023-08-30T01:09:09;97952.03;;;15.53;100.00
44697;BME280;57264;47.480;19.354;2023-08-30T01:14:22;97966.84;;;15.38;100.00
44697;BME280;57264;47.480;19.354;2023-08-30T01:16:51;97965.25;;;15.37;100.00
44697;BME280;57264;47.480;19.354;2023-08-30T01:22:07;97975.84;;;15.22;100.00
44697;BME280;57264;47.480;19.354;2023-08-30T01:25:09;97970.81;;;15.21;100.00
44697;BME280;57264;47.480;19.354;2023-08-30T01:27:25;97967.13;;;15.17;100.00
44697;BME280;57264;47.480;19.354;2023-08-30T01:29:52;97962.09;;;15.10;100.00
44697;BME280;57264;47.480;19.354;2023-08-30T01:32:19;97966.34;;;15.16;100.00
44697;BME280;57264;47.480;19.354;2023-08-30T01:34:45;97965.81;;;15.04;100.00
44697;BME280;57264;47.480;19.354;2023-08-30T01:37:13;97977.69;;;15.07;100.00
44697;BME280;57264;47.480;19.354;2023-08-30T01:39:39;97973.75;;;15.04;100.00
44697;BME280;57264;47.480;19.354;2023-08-30T01:42:06;97972.94;;;15.04;100.00
44697;BME280;57264;47.480;19.354;2023-08-30T01:44:32;97974.53;;;15.10;100.00
44697;BME280;57264;47.480;19.354;2023-08-30T01:46:58;97979.56;;;15.16;100.00
44697;BME280;57264;47.480;19.354;2023-08-30T01:49:24;97976.63;;;15.18;100.00
44697;BME280;57264;47.480;19.354;2023-08-30T01:51:50;97977.69;;;15.17;100.00
44697;BME280;57264;47.480;19.354;2023-08-30T01:54:17;97982.72;;;15.28;100.00
44697;BME280;57264;47.480;19.354;2023-08-30T01:56:42;97987.47;;;15.26;100.00
44697;BME280;57264;47.480;19.354;2023-08-30T01:59:08;97989.06;;;15.17;100.00
44697;BME280;57264;47.480;19.354;2023-08-30T02:01:33;97982.72;;;15.13;100.00
44697;BME280;57264;47.480;19.354;2023-08-30T02:03:59;97981.16;;;15.12;100.00
44697;BME280;57264;47.480;19.354;2023-08-30T02:06:48;97984.31;;;15.14;100.00
44697;BME280;57264;47.480;19.354;2023-08-30T02:09:17;97979.28;;;15.13;100.00
44697;BME280;57264;47.480;19.354;2023-08-30T02:11:44;97974.25;;;15.06;100.00
44697;BME280;57264;47.480;19.354;2023-08-30T02:14:11;97975.06;;;15.07;100.00
44697;BME280;57264;47.480;19.354;2023-08-30T02:16:42;97963.44;;;15.08;100.00
44697;BME280;57264;47.480;19.354;2023-08-30T02:19:08;97965.81;;;15.04;100.00
44697;BME280;57264;47.480;19.354;2023-08-30T02:21:33;97971.09;;;15.04;100.00
44697;BME280;57264;47.480;19.354;2023-08-30T02:23:59;97970.03;;;14.95;100.00
44697;BME280;57264;47.480;19.354;2023-08-30T02:26:24;97974.28;;;14.91;100.00
44697;BME280;57264;47.480;19.354;2023-08-30T02:28:49;97969.53;;;14.88;100.00
44697;BME280;57264;47.480;19.354;2023-08-30T02:31:15;97967.66;;;14.88;100.00
44697;BME280;57264;47.480;19.354;2023-08-30T02:33:40;97966.88;;;14.83;100.00
44697;BME280;57264;47.480;19.354;2023-08-30T02:36:06;97968.97;;;14.86;100.00
44697;BME280;57264;47.480;19.354;2023-08-30T02:38:33;97976.66;;;14.87;100.00
44697;BME280;57264;47.480;19.354;2023-08-30T02:40:58;97970.81;;;14.90;100.00
44697;BME280;57264;47.480;19.354;2023-08-30T02:43:23;97968.69;;;14.92;100.00
44697;BME280;57264;47.480;19.354;2023-08-30T02:45:49;97968.44;;;14.94;100.00
44697;BME280;57264;47.480;19.354;2023-08-30T02:48:14;97965.81;;;14.94;100.00
44697;BME280;57264;47.480;19.354;2023-08-30T02:50:40;97965.28;;;14.92;100.00
44697;BME280;57264;47.480;19.354;2023-08-30T02:53:05;97968.97;;;14.91;100.00
44697;BME280;57264;47.480;19.354;2023-08-30T02:55:33;97962.91;;;14.90;100.00
44697;BME280;57264;47.480;19.354;2023-08-30T02:57:59;97966.88;;;14.88;100.00
44697;BME280;57264;47.480;19.354;2023-08-30T03:00:24;97963.97;;;14.84;100.00
44697;BME280;57264;47.480;19.354;2023-08-30T03:02:50;97954.44;;;14.83;100.00
44697;BME280;57264;47.480;19.354;2023-08-30T03:05:15;97961.34;;;14.84;100.00
44697;BME280;57264;47.480;19.354;2023-08-30T03:07:40;97962.09;;;14.85;100.00
44697;BME280;57264;47.480;19.354;2023-08-30T03:10:06;97974.25;;;14.81;100.00
44697;BME280;57264;47.480;19.354;2023-08-30T03:12:31;97977.44;;;14.83;100.00
44697;BME280;57264;47.480;19.354;2023-08-30T03:14:58;97969.25;;;14.79;100.00
44697;BME280;57264;47.480;19.354;2023-08-30T03:17:23;97977.41;;;14.78;100.00
44697;BME280;57264;47.480;19.354;2023-08-30T03:19:51;97980.59;;;14.80;100.00
44697;BME280;57264;47.480;19.354;2023-08-30T03:22:17;97975.81;;;14.77;100.00
44697;BME280;57264;47.480;19.354;2023-08-30T03:24:43;97993.81;;;14.75;100.00
44697;BME280;57264;47.480;19.354;2023-08-30T03:27:08;97988.28;;;14.76;100.00
44697;BME280;57264;47.480;19.354;2023-08-30T03:29:34;97979.53;;;14.81;100.00
44697;BME280;57264;47.480;19.354;2023-08-30T03:31:59;97978.75;;;14.85;100.00
44697;BME280;57264;47.480;19.354;2023-08-30T03:34:24;97976.63;;;14.82;100.00
44697;BME280;57264;47.480;19.354;2023-08-30T03:36:50;97974.00;;;14.82;100.00
44697;BME280;57264;47.480;19.354;2023-08-30T03:39:20;97974.78;;;14.83;100.00
44697;BME280;57264;47.480;19.354;2023-08-30T03:41:45;97973.75;;;14.84;100.00
44697;BME280;57264;47.480;19.354;2023-08-30T03:44:11;97976.91;;;14.86;100.00
44697;BME280;57264;47.480;19.354;2023-08-30T03:46:36;97979.28;;;14.82;100.00
44697;BME280;57264;47.480;19.354;2023-08-30T03:49:02;97979.53;;;14.81;100.00
44697;BME280;57264;47.480;19.354;2023-08-30T03:51:29;97983.75;;;14.82;100.00
44697;BME280;57264;47.480;19.354;2023-08-30T03:53:54;97996.97;;;14.77;100.00
44697;BME280;57264;47.480;19.354;2023-08-30T03:56:21;98001.47;;;14.76;100.00
44697;BME280;57264;47.480;19.354;2023-08-30T03:58:47;98006.22;;;14.74;100.00
44697;BME280;57264;47.480;19.354;2023-08-30T04:01:12;98003.56;;;14.74;100.00
44697;BME280;57264;47.480;19.354;2023-08-30T04:03:37;98009.66;;;14.75;100.00
44697;BME280;57264;47.480;19.354;2023-08-30T04:06:03;98012.03;;;14.76;100.00
44697;BME280;57264;47.480;19.354;2023-08-30T04:08:28;98008.34;;;14.72;100.00
44697;BME280;57264;47.480;19.354;2023-08-30T04:10:53;98013.34;;;14.74;100.00
44697;BME280;57264;47.480;19.354;2023-08-30T04:13:19;98010.19;;;14.72;100.00
44697;BME280;57264;47.480;19.354;2023-08-30T04:15:44;98009.09;;;14.73;100.00
44697;BME280;57264;47.480;19.354;2023-08-30T04:18:10;98013.88;;;14.71;100.00
44697;BME280;57264;47.480;19.354;2023-08-30T04:20:35;98009.63;;;14.70;100.00
44697;BME280;57264;47.480;19.354;2023-08-30T04:23:01;98014.13;;;14.64;100.00
44697;BME280;57264;47.480;19.354;2023-08-30T04:25:29;98024.41;;;14.61;100.00
44697;BME280;57264;47.480;19.354;2023-08-30T04:27:55;98029.97;;;14.59;100.00
44697;BME280;57264;47.480;19.354;2023-08-30T04:30:20;98033.66;;;14.63;100.00
44697;BME280;57264;47.480;19.354;2023-08-30T04:32:46;98029.69;;;14.66;100.00
44697;BME280;57264;47.480;19.354;2023-08-30T04:35:11;98019.66;;;14.73;100.00
44697;BME280;57264;47.480;19.354;2023-08-30T04:37:36;98028.16;;;14.80;100.00
44697;BME280;57264;47.480;19.354;2023-08-30T04:40:03;98031.88;;;14.84;100.00
44697;BME280;57264;47.480;19.354;2023-08-30T04:42:29;98038.47;;;14.86;100.00
44697;BME280;57264;47.480;19.354;2023-08-30T04:44:54;98046.94;;;14.98;100.00
44697;BME280;57264;47.480;19.354;2023-08-30T04:47:21;98041.13;;;14.91;100.00
44697;BME280;57264;47.480;19.354;2023-08-30T04:49:50;98040.84;;;14.88;100.00
44697;BME280;57264;47.480;19.354;2023-08-30T04:52:16;98038.47;;;14.96;100.00
44697;BME280;57264;47.480;19.354;2023-08-30T04:54:42;98035.28;;;14.89;100.00
44697;BME280;57264;47.480;19.354;2023-08-30T04:57:08;98040.31;;;14.86;100.00
44697;BME280;57264;47.480;19.354;2023-08-30T04:59:33;98042.69;;;14.92;100.00
44697;BME280;57264;47.480;19.354;2023-08-30T05:01:58;98044.31;;;15.04;100.00
44697;BME280;57264;47.480;19.354;2023-08-30T05:04:24;98042.72;;;15.03;100.00
44697;BME280;57264;47.480;19.354;2023-08-30T05:06:49;98041.16;;;15.12;100.00
44697;BME280;57264;47.480;19.354;2023-08-30T05:09:15;98044.03;;;15.05;100.00
44697;BME280;57264;47.480;19.354;2023-08-30T05:11:40;98041.41;;;15.15;100.00
44697;BME280;57264;47.480;19.354;2023-08-30T05:14:06;98045.09;;;15.14;100.00
44697;BME280;57264;47.480;19.354;2023-08-30T05:16:32;98038.75;;;15.30;100.00
44697;BME280;57264;47.480;19.354;2023-08-30T05:18:57;98038.75;;;15.10;100.00
44697;BME280;57264;47.480;19.354;2023-08-30T05:21:22;98042.19;;;15.26;100.00
44697;BME280;57264;47.480;19.354;2023-08-30T05:23:48;98038.25;;;15.54;100.00
44697;BME280;57264;47.480;19.354;2023-08-30T05:26:13;98041.97;;;15.53;100.00
44697;BME280;57264;47.480;19.354;2023-08-30T05:28:38;98049.06;;;15.47;100.00
44697;BME280;57264;47.480;19.354;2023-08-30T05:31:04;98043.50;;;15.69;100.00
44697;BME280;57264;47.480;19.354;2023-08-30T05:33:29;98037.69;;;15.67;100.00
44697;BME280;57264;47.480;19.354;2023-08-30T05:35:55;98040.06;;;15.78;100.00
44697;BME280;57264;47.480;19.354;2023-08-30T05:38:20;98033.91;;;15.98;100.00
44697;BME280;57264;47.480;19.354;2023-08-30T05:40:45;98047.75;;;15.70;100.00
44697;BME280;57264;47.480;19.354;2023-08-30T05:43:11;98051.94;;;15.86;100.00
44697;BME280;57264;47.480;19.354;2023-08-30T05:45:36;98053.53;;;15.82;100.00
44697;BME280;57264;47.480;19.354;2023-08-30T05:48:02;98051.66;;;15.98;100.00
44697;BME280;57264;47.480;19.354;2023-08-30T05:50:29;98057.19;;;16.11;100.00
44697;BME280;57264;47.480;19.354;2023-08-30T05:52:54;98049.53;;;15.95;100.00
44697;BME280;57264;47.480;19.354;2023-08-30T05:55:19;98050.28;;;16.15;100.00
44697;BME280;57264;47.480;19.354;2023-08-30T05:57:45;98053.41;;;16.32;100.00
44697;BME280;57264;47.480;19.354;2023-08-30T06:00:11;98054.22;;;16.82;100.00
44697;BME280;57264;47.480;19.354;2023-08-30T06:02:40;98052.28;;;16.49;100.00
44697;BME280;57264;47.480;19.354;2023-08-30T06:05:05;98053.28;;;16.68;100.00
44697;BME280;57264;47.480;19.354;2023-08-30T06:07:31;98050.03;;;16.76;100.00
44697;BME280;57264;47.480;19.354;2023-08-30T06:09:56;98049.25;;;17.14;100.00
44697;BME280;57264;47.480;19.354;2023-08-30T06:12:21;98046.31;;;17.50;100.00
44697;BME280;57264;47.480;19.354;2023-08-30T06:14:47;98047.16;;;17.11;100.00
44697;BME280;57264;47.480;19.354;2023-08-30T06:17:17;98053.50;;;17.15;100.00
44697;BME280;57264;47.480;19.354;2023-08-30T06:19:43;98047.31;;;17.59;99.12
44697;BME280;57264;47.480;19.354;2023-08-30T06:22:08;98052.88;;;19.32;88.91
44697;BME280;57264;47.480;19.354;2023-08-30T06:24:34;98049.78;;;18.93;90.34
44697;BME280;57264;47.480;19.354;2023-08-30T06:26:59;98062.47;;;19.14;88.31
44697;BME280;57264;47.480;19.354;2023-08-30T06:29:25;98064.72;;;17.99;94.04
44697;BME280;57264;47.480;19.354;2023-08-30T06:31:50;98062.03;;;18.46;91.13
44697;BME280;57264;47.480;19.354;2023-08-30T06:34:15;98061.06;;;19.36;86.72
44697;BME280;57264;47.480;19.354;2023-08-30T06:36:41;98065.22;;;18.48;90.61
44697;BME280;57264;47.480;19.354;2023-08-30T06:39:06;98060.91;;;19.65;87.23
44697;BME280;57264;47.480;19.354;2023-08-30T06:41:32;98058.28;;;20.05;84.96
44697;BME280;57264;47.480;19.354;2023-08-30T06:43:57;98056.81;;;19.35;87.36
44697;BME280;57264;47.480;19.354;2023-08-30T06:46:23;98058.00;;;19.10;88.26
44697;BME280;57264;47.480;19.354;2023-08-30T06:48:51;98040.06;;;20.89;79.60
44697;BME280;57264;47.480;19.354;2023-08-30T06:51:18;98053.25;;;20.59;80.40
44697;BME280;57264;47.480;19.354;2023-08-30T06:53:44;98050.31;;;19.59;86.09
44697;BME280;57264;47.480;19.354;2023-08-30T06:56:11;98066.22;;;19.13;87.65
44697;BME280;57264;47.480;19.354;2023-08-30T06:58:37;98060.19;;;19.59;85.29
44697;BME280;57264;47.480;19.354;2023-08-30T07:01:03;98053.81;;;19.74;85.73
44697;BME280;57264;47.480;19.354;2023-08-30T07:03:28;98058.91;;;19.56;84.69
44697;BME280;57264;47.480;19.354;2023-08-30T07:05:53;98061.84;;;19.55;84.86
44697;BME280;57264;47.480;19.354;2023-08-30T07:08:19;98064.72;;;19.58;85.13
44697;BME280;57264;47.480;19.354;2023-08-30T07:10:44;98070.50;;;19.47;87.93
44697;BME280;57264;47.480;19.354;2023-08-30T07:13:10;98055.03;;;20.08;84.42
44697;BME280;57264;47.480;19.354;2023-08-30T07:15:37;98059.56;;;20.08;84.34
44697;BME280;57264;47.480;19.354;2023-08-30T07:18:03;98063.56;;;19.65;86.00
44697;BME280;57264;47.480;19.354;2023-08-30T07:20:29;98055.69;;;19.87;84.66
44697;BME280;57264;47.480;19.354;2023-08-30T07:22:54;98062.97;;;19.68;86.70
44697;BME280;57264;47.480;19.354;2023-08-30T07:25:19;98061.66;;;20.38;81.66
44697;BME280;57264;47.480;19.354;2023-08-30T07:27:45;98063.56;;;20.38;81.05
44697;BME280;57264;47.480;19.354;2023-08-30T07:30:10;98063.81;;;21.13;78.08
44697;BME280;57264;47.480;19.354;2023-08-30T07:32:35;98064.63;;;20.37;79.05
44697;BME280;57264;47.480;19.354;2023-08-30T07:35:03;98069.50;;;19.75;84.09
44697;BME280;57264;47.480;19.354;2023-08-30T07:37:28;98069.38;;;20.53;80.87
44697;BME280;57264;47.480;19.354;2023-08-30T07:39:54;98058.41;;;21.27;78.79
44697;BME280;57264;47.480;19.354;2023-08-30T07:42:20;98078.66;;;19.69;83.07
44697;BME280;57264;47.480;19.354;2023-08-30T07:44:45;98070.66;;;19.69;82.30
44697;BME280;57264;47.480;19.354;2023-08-30T07:47:10;98075.78;;;20.66;81.40
44697;BME280;57264;47.480;19.354;2023-08-30T07:49:36;98066.41;;;20.41;80.99
44697;BME280;57264;47.480;19.354;2023-08-30T07:52:01;98077.16;;;20.99;79.24
44697;BME280;57264;47.480;19.354;2023-08-30T07:54:27;98073.78;;;21.21;77.85
44697;BME280;57264;47.480;19.354;2023-08-30T07:56:53;98071.63;;;20.46;79.82
44697;BME280;57264;47.480;19.354;2023-08-30T07:59:18;98071.63;;;20.60;79.77
44697;BME280;57264;47.480;19.354;2023-08-30T08:01:44;98074.81;;;21.34;76.82
44697;BME280;57264;47.480;19.354;2023-08-30T08:04:09;98077.44;;;21.78;73.53
44697;BME280;57264;47.480;19.354;2023-08-30T08:06:34;98082.38;;;20.55;79.10
44697;BME280;57264;47.480;19.354;2023-08-30T08:09:00;98078.25;;;21.87;74.70
44697;BME280;57264;47.480;19.354;2023-08-30T08:11:25;98080.00;;;22.23;73.85
44697;BME280;57264;47.480;19.354;2023-08-30T08:13:51;98080.63;;;22.20;71.80
44697;BME280;57264;47.480;19.354;2023-08-30T08:16:16;98080.75;;;22.54;71.98
44697;BME280;57264;47.480;19.354;2023-08-30T08:18:41;98075.97;;;22.99;68.74
44697;BME280;57264;47.480;19.354;2023-08-30T08:21:07;98084.88;;;21.37;70.90
44697;BME280;57264;47.480;19.354;2023-08-30T08:23:32;98081.81;;;21.74;71.01
44697;BME280;57264;47.480;19.354;2023-08-30T08:25:58;98083.34;;;21.22;73.41
44697;BME280;57264;47.480;19.354;2023-08-30T08:28:23;98088.91;;;21.79;72.83
44697;BME280;57264;47.480;19.354;2023-08-30T08:30:49;98090.66;;;21.83;71.14
44697;BME280;57264;47.480;19.354;2023-08-30T08:33:16;98083.84;;;22.39;70.28
44697;BME280;57264;47.480;19.354;2023-08-30T08:35:43;98086.38;;;22.44;68.83
44697;BME280;57264;47.480;19.354;2023-08-30T08:38:09;98081.66;;;23.15;68.99
44697;BME280;57264;47.480;19.354;2023-08-30T08:40:37;98094.16;;;21.39;72.53
44697;BME280;57264;47.480;19.354;2023-08-30T08:43:06;98097.63;;;20.90;74.39
44697;BME280;57264;47.480;19.354;2023-08-30T08:45:37;98110.72;;;20.51;77.47
44697;BME280;57264;47.480;19.354;2023-08-30T08:48:06;98109.59;;;20.79;75.87
44697;BME280;57264;47.480;19.354;2023-08-30T08:50:31;98101.69;;;22.13;73.83
44697;BME280;57264;47.480;19.354;2023-08-30T08:52:57;98112.66;;;21.80;71.43
44697;BME280;57264;47.480;19.354;2023-08-30T08:55:23;98102.34;;;21.65;70.02
44697;BME280;57264;47.480;19.354;2023-08-30T08:57:48;98114.38;;;21.99;71.56
44697;BME280;57264;47.480;19.354;2023-08-30T09:00:14;98103.75;;;22.64;69.29
44697;BME280;57264;47.480;19.354;2023-08-30T09:02:41;98104.97;;;23.14;68.89
44697;BME280;57264;47.480;19.354;2023-08-30T09:05:07;98096.00;;;23.19;68.19
44697;BME280;57264;47.480;19.354;2023-08-30T09:07:33;98097.94;;;22.62;67.10
44697;BME280;57264;47.480;19.354;2023-08-30T09:09:59;98111.13;;;21.88;69.41
44697;BME280;57264;47.480;19.354;2023-08-30T09:12:24;98103.84;;;20.99;72.28
44697;BME280;57264;47.480;19.354;2023-08-30T09:14:53;98111.00;;;21.71;72.08
44697;BME280;57264;47.480;19.354;2023-08-30T09:17:19;98121.50;;;20.73;73.44
44697;BME280;57264;47.480;19.354;2023-08-30T09:19:44;98118.91;;;20.82;73.20
44697;BME280;57264;47.480;19.354;2023-08-30T09:22:10;98121.28;;;21.33;73.58
44697;BME280;57264;47.480;19.354;2023-08-30T09:24:38;98121.44;;;21.14;73.07
44697;BME280;57264;47.480;19.354;2023-08-30T09:27:07;98123.44;;;21.31;71.50
44697;BME280;57264;47.480;19.354;2023-08-30T09:29:32;98124.28;;;21.04;72.19
44697;BME280;57264;47.480;19.354;2023-08-30T09:31:58;98123.81;;;22.44;70.44
44697;BME280;57264;47.480;19.354;2023-08-30T09:34:24;98120.66;;;22.03;69.31
44697;BME280;57264;47.480;19.354;2023-08-30T09:36:50;98133.66;;;21.96;70.08
44697;BME280;57264;47.480;19.354;2023-08-30T09:39:16;98128.91;;;22.23;69.45
44697;BME280;57264;47.480;19.354;2023-08-30T09:41:41;98126.97;;;20.90;72.09
44697;BME280;57264;47.480;19.354;2023-08-30T09:51:46;98132.91;;;20.87;71.90
44697;BME280;57264;47.480;19.354;2023-08-30T09:54:16;98130.00;;;22.14;70.21
44697;BME280;57264;47.480;19.354;2023-08-30T09:56:42;98130.19;;;21.51;68.97
44697;BME280;57264;47.480;19.354;2023-08-30T09:59:13;98136.97;;;21.79;69.14
44697;BME280;57264;47.480;19.354;2023-08-30T10:01:42;98120.06;;;23.02;66.76
44697;BME280;57264;47.480;19.354;2023-08-30T10:04:11;98133.53;;;21.78;68.88
44697;BME280;57264;47.480;19.354;2023-08-30T10:06:36;98130.88;;;22.01;67.96
44697;BME280;57264;47.480;19.354;2023-08-30T10:09:02;98137.03;;;21.87;69.13
44697;BME280;57264;47.480;19.354;2023-08-30T10:11:29;98132.94;;;21.81;68.54
44697;BME280;57264;47.480;19.354;2023-08-30T10:13:54;98138.13;;;21.06;71.56
44697;BME280;57264;47.480;19.354;2023-08-30T10:16:22;98135.16;;;21.08;71.11
44697;BME280;57264;47.480;19.354;2023-08-30T10:18:50;98135.38;;;21.69;69.85
44697;BME280;57264;47.480;19.354;2023-08-30T10:21:15;98141.63;;;21.65;71.00
44697;BME280;57264;47.480;19.354;2023-08-30T10:23:43;98138.03;;;21.91;69.62
44697;BME280;57264;47.480;19.354;2023-08-30T10:26:10;98134.22;;;22.46;67.78
44697;BME280;57264;47.480;19.354;2023-08-30T10:28:35;98146.09;;;22.31;68.68
44697;BME280;57264;47.480;19.354;2023-08-30T10:31:06;98143.81;;;22.16;68.24
44697;BME280;57264;47.480;19.354;2023-08-30T10:36:22;98146.72;;;21.97;68.42
44697;BME280;57264;47.480;19.354;2023-08-30T10:38:51;98143.75;;;22.29;67.57
44697;BME280;57264;47.480;19.354;2023-08-30T10:41:26;98153.50;;;21.36;70.35
44697;BME280;57264;47.480;19.354;2023-08-30T10:43:52;98142.66;;;22.39;68.62
44697;BME280;57264;47.480;19.354;2023-08-30T10:46:28;98151.31;;;21.83;68.53
44697;BME280;57264;47.480;19.354;2023-08-30T10:48:53;98144.22;;;22.01;68.51
44697;BME280;57264;47.480;19.354;2023-08-30T10:51:19;98148.22;;;21.45;71.24
44697;BME280;57264;47.480;19.354;2023-08-30T10:53:56;98143.34;;;21.25;71.37
44697;BME280;57264;47.480;19.354;2023-08-30T10:56:26;98142.91;;;20.68;72.94
44697;BME280;57264;47.480;19.354;2023-08-30T10:58:52;98139.47;;;21.31;71.47
44697;BME280;57264;47.480;19.354;2023-08-30T11:01:17;98140.28;;;21.98;68.80
44697;BME280;57264;47.480;19.354;2023-08-30T11:03:44;98144.16;;;22.14;68.60
44697;BME280;57264;47.480;19.354;2023-08-30T11:06:13;98142.63;;;22.22;68.18
44697;BME280;57264;47.480;19.354;2023-08-30T11:08:39;98143.91;;;22.72;69.35
44697;BME280;57264;47.480;19.354;2023-08-30T11:11:05;98145.06;;;21.43;68.56
44697;BME280;57264;47.480;19.354;2023-08-30T11:13:31;98144.34;;;21.51;69.42
44697;BME280;57264;47.480;19.354;2023-08-30T11:15:59;98147.69;;;21.07;71.35
44697;BME280;57264;47.480;19.354;2023-08-30T11:18:26;98140.47;;;21.57;69.57
44697;BME280;57264;47.480;19.354;2023-08-30T11:20:59;98145.56;;;21.45;71.67
44697;BME280;57264;47.480;19.354;2023-08-30T11:23:26;98135.78;;;21.40;71.04
44697;BME280;57264;47.480;19.354;2023-08-30T11:25:52;98140.81;;;22.48;68.75
44697;BME280;57264;47.480;19.354;2023-08-30T11:28:30;98147.69;;;21.57;68.83
44697;BME280;57264;47.480;19.354;2023-08-30T11:30:55;98142.25;;;21.26;71.34
44697;BME280;57264;47.480;19.354;2023-08-30T11:33:21;98139.25;;;20.78;70.75
44697;BME280;57264;47.480;19.354;2023-08-30T11:35:48;98152.91;;;21.62;68.95
44697;BME280;57264;47.480;19.354;2023-08-30T11:38:14;98143.09;;;21.13;70.65
44697;BME280;57264;47.480;19.354;2023-08-30T11:40:40;98153.88;;;20.53;72.10
44697;BME280;57264;47.480;19.354;2023-08-30T11:43:06;98140.50;;;21.43;71.28
44697;BME280;57264;47.480;19.354;2023-08-30T11:45:32;98146.53;;;21.71;69.23
44697;BME280;57264;47.480;19.354;2023-08-30T11:47:59;98142.31;;;20.71;71.66
44697;BME280;57264;47.480;19.354;2023-08-30T11:50:24;98141.44;;;21.61;69.54
44697;BME280;57264;47.480;19.354;2023-08-30T11:52:50;98143.81;;;21.27;71.11
44697;BME280;57264;47.480;19.354;2023-08-30T11:55:16;98149.00;;;21.10;69.94
44697;BME280;57264;47.480;19.354;2023-08-30T11:57:44;98141.09;;;20.91;70.61
44697;BME280;57264;47.480;19.354;2023-08-30T12:00:10;98146.47;;;21.63;69.87
44697;BME280;57264;47.480;19.354;2023-08-30T12:02:36;98146.22;;;21.15;70.68
44697;BME280;57264;47.480;19.354;2023-08-30T12:05:02;98149.66;;;20.66;71.60
44697;BME280;57264;47.480;19.354;2023-08-30T12:07:29;98149.41;;;20.89;70.16
44697;BME280;57264;47.480;19.354;2023-08-30T12:12:44;98147.25;;;22.08;67.36
44697;BME280;57264;47.480;19.354;2023-08-30T12:15:10;98155.00;;;21.29;69.59
44697;BME280;57264;47.480;19.354;2023-08-30T12:17:36;98151.09;;;21.93;66.76
44697;BME280;57264;47.480;19.354;2023-08-30T12:20:02;98148.97;;;21.23;70.97
44697;BME280;57264;47.480;19.354;2023-08-30T12:22:38;98150.50;;;20.47;71.46
44697;BME280;57264;47.480;19.354;2023-08-30T12:25:03;98145.63;;;21.04;70.38
44697;BME280;57264;47.480;19.354;2023-08-30T12:27:29;98135.03;;;20.49;70.57
44697;BME280;57264;47.480;19.354;2023-08-30T12:29:55;98135.38;;;20.97;71.40
44697;BME280;57264;47.480;19.354;2023-08-30T12:32:21;98132.78;;;21.06;69.98
44697;BME280;57264;47.480;19.354;2023-08-30T12:34:46;98123.44;;;20.81;70.37
44697;BME280;57264;47.480;19.354;2023-08-30T12:37:12;98116.13;;;21.36;69.13
44697;BME280;57264;47.480;19.354;2023-08-30T12:39:37;98115.63;;;21.57;68.49
44697;BME280;57264;47.480;19.354;2023-08-30T12:42:03;98113.25;;;21.33;70.10
44697;BME280;57264;47.480;19.354;2023-08-30T12:44:29;98115.69;;;21.65;68.16
44697;BME280;57264;47.480;19.354;2023-08-30T12:46:54;98115.22;;;20.91;68.86
44697;BME280;57264;47.480;19.354;2023-08-30T12:49:20;98109.19;;;21.35;67.37
44697;BME280;57264;47.480;19.354;2023-08-30T12:51:46;98105.03;;;22.18;66.03
44697;BME280;57264;47.480;19.354;2023-08-30T12:54:11;98113.56;;;21.31;67.09
44697;BME280;57264;47.480;19.354;2023-08-30T12:56:36;98105.19;;;21.24;67.97
44697;BME280;57264;47.480;19.354;2023-08-30T12:59:02;98102.72;;;21.50;67.36
44697;BME280;57264;47.480;19.354;2023-08-30T13:01:28;98093.97;;;21.58;65.79